Time;durP1;ratioP1;P1;durP2;ratioP2;P2;SDS_P1;SDS_P2;PMS_P1;PMS_P2;Temp;Humidity;BMP_temperature;BMP_pressure;BME280_temperature;BME280_humidity;BME280_pressure;Samples;Min_cycle;Max_cycle;Signal;HPM_P1;HPM_P2
2023/01/22 00:03:45;;;;;;;7.37;5.83;;;;;;;4.83;56.91;98475.78;8382499;28;20232;-67
2023/01/22 00:07:48;;;;;;;6.30;5.70;;;;;;;4.79;57.01;98482.69;8382387;28;20226;-67
2023/01/22 00:11:52;;;;;;;6.20;5.60;;;;;;;4.81;57.14;98477.53;8382392;28;20555;-67
2023/01/22 00:15:57;;;;;;;7.50;6.10;;;;;;;4.56;57.28;98446.22;8382284;28;20404;-67
2023/01/22 00:20:00;;;;;;;6.67;5.63;;;;;;;4.86;56.96;98484.31;8382173;28;20229;-65
2023/01/22 00:24:03;;;;;;;6.17;5.57;;;;;;;4.13;57.09;98374.94;8381740;28;20233;-67
2023/01/22 00:28:07;;;;;;;5.90;5.30;;;;;;;4.04;56.95;98353.69;8382023;28;20540;-67
2023/01/22 00:32:10;;;;;;;6.00;5.37;;;;;;;4.69;57.29;98471.69;8381732;28;20299;-67
2023/01/22 00:36:15;;;;;;;6.20;5.60;;;;;;;4.72;56.89;98462.25;8381420;28;20237;-67
2023/01/22 00:40:18;;;;;;;5.70;5.10;;;;;;;4.60;57.15;98440.19;8381579;28;20532;-66
2023/01/22 00:44:23;;;;;;;6.10;5.50;;;;;;;4.62;57.19;98454.66;8381242;28;20225;-65
2023/01/22 00:48:26;;;;;;;6.37;5.73;;;;;;;4.65;57.69;98464.91;8381194;28;20228;-65
2023/01/22 00:52:28;;;;;;;5.70;5.10;;;;;;;4.79;57.15;98467.28;8381310;28;20232;-65
2023/01/22 00:56:31;;;;;;;5.50;5.00;;;;;;;4.69;57.40;98465.72;8381015;28;20236;-65
2023/01/22 01:00:35;;;;;;;5.53;4.83;;;;;;;4.70;56.98;98468.28;8380449;28;20224;-65
2023/01/22 01:04:38;;;;;;;5.27;4.77;;;;;;;4.63;57.69;98466.63;8380902;28;20233;-66
2023/01/22 01:08:43;;;;;;;4.97;4.47;;;;;;;4.57;57.82;98473.53;8380925;28;20232;-65
2023/01/22 01:12:45;;;;;;;5.27;4.77;;;;;;;4.65;57.40;98466.63;8372495;28;20229;-65
2023/01/22 01:16:50;;;;;;;6.03;5.07;;;;;;;4.26;58.36;98472.19;8380436;28;20224;-65
2023/01/22 01:20:54;;;;;;;4.70;4.30;;;;;;;4.69;57.89;98474.25;8380391;28;20229;-65
2023/01/22 01:24:57;;;;;;;5.10;4.60;;;;;;;4.64;57.14;98464.91;8379902;28;20252;-65
2023/01/22 01:28:59;;;;;;;4.90;4.50;;;;;;;4.75;57.50;98473.31;8380339;28;20229;-66
2023/01/22 01:33:03;;;;;;;5.00;4.40;;;;;;;4.75;57.24;98467.34;8380094;28;20231;-66
2023/01/22 01:37:06;;;;;;;4.83;4.37;;;;;;;4.63;57.53;98471.78;8380002;28;20516;-65
2023/01/22 01:41:11;;;;;;;4.53;4.13;;;;;;;4.64;57.00;98450.38;8380092;28;20232;-66
2023/01/22 01:45:23;;;;;;;4.60;4.20;;;;;;;4.88;56.82;98477.44;8379864;28;20221;-66
2023/01/22 01:49:30;;;;;;;4.87;4.37;;;;;;;4.78;57.47;98483.56;8379658;28;20287;-65
2023/01/22 01:53:33;;;;;;;4.03;3.70;;;;;;;4.64;57.46;98444.41;8379561;28;20419;-66
2023/01/22 01:57:36;;;;;;;4.33;3.93;;;;;;;4.90;57.06;98474.84;8379540;28;20227;-66
2023/01/22 02:01:39;;;;;;;3.93;3.63;;;;;;;4.89;57.07;98468.88;8379568;28;20248;-66
2023/01/22 02:05:43;;;;;;;4.20;3.80;;;;;;;4.84;57.02;98478.34;8378795;28;20239;-66
2023/01/22 02:09:46;;;;;;;3.80;3.50;;;;;;;4.81;57.60;98486.06;8379456;28;20224;-66
2023/01/22 02:13:53;;;;;;;3.87;3.57;;;;;;;4.87;57.05;98482.59;8383247;28;20255;-66
2023/01/22 02:17:56;;;;;;;4.03;3.73;;;;;;;4.78;57.31;98493.84;8385727;28;20454;-66
2023/01/22 02:22:00;;;;;;;3.70;3.40;;;;;;;4.84;57.29;98496.31;8385733;28;20240;-66
2023/01/22 02:26:03;;;;;;;4.00;3.70;;;;;;;4.84;57.10;98500.59;8385371;28;20229;-66
2023/01/22 02:30:07;;;;;;;4.20;3.90;;;;;;;5.53;55.29;98504.75;8383347;28;20473;-66
2023/01/22 02:34:11;;;;;;;3.70;3.40;;;;;;;4.98;57.20;98501.25;8385187;28;20232;-65
2023/01/22 02:38:15;;;;;;;3.63;3.33;;;;;;;4.93;56.72;98492.78;8385096;28;20420;-66
2023/01/22 02:42:18;;;;;;;3.50;3.20;;;;;;;4.93;57.48;98492.78;8384792;28;20226;-65
2023/01/22 02:46:21;;;;;;;3.33;3.03;;;;;;;5.01;57.28;98497.81;8384916;28;20236;-66
2023/01/22 02:50:23;;;;;;;3.50;3.20;;;;;;;4.94;57.01;98497.03;8384800;28;20231;-66
2023/01/22 02:54:27;;;;;;;3.63;3.33;;;;;;;4.85;57.26;98494.59;8384750;28;20236;-66
2023/01/22 02:58:30;;;;;;;3.37;3.07;;;;;;;4.86;57.37;98486.88;8384649;28;20225;-66
2023/01/22 03:02:33;;;;;;;3.60;3.30;;;;;;;4.86;57.45;98497.13;8384435;28;20225;-66
2023/01/22 03:06:36;;;;;;;3.27;2.97;;;;;;;4.67;57.60;98464.88;8384164;28;20229;-66
2023/01/22 03:10:41;;;;;;;3.43;3.13;;;;;;;4.62;57.88;98500.00;8384299;28;20251;-66
2023/01/22 03:23:26;;;;;;;3.20;3.00;;;;;;;4.72;58.10;98498.19;8382763;28;20428;-66
2023/01/22 03:27:31;;;;;;;2.93;2.73;;;;;;;4.88;57.74;98503.09;8383688;28;20307;-66
2023/01/22 03:31:34;;;;;;;3.43;3.13;;;;;;;4.77;58.08;98491.28;8383413;28;20390;-66
2023/01/22 03:35:37;;;;;;;3.40;3.10;;;;;;;4.90;57.71;98498.78;8383236;28;20221;-66
2023/01/22 03:39:40;;;;;;;3.50;3.20;;;;;;;4.86;57.63;98499.69;8383504;28;20543;-66
2023/01/22 03:43:45;;;;;;;3.47;3.17;;;;;;;4.83;57.65;98507.44;8374808;28;20239;-66
2023/01/22 03:47:47;;;;;;;3.23;2.93;;;;;;;4.88;58.07;98505.66;8383073;28;20225;-66
2023/01/22 03:51:50;;;;;;;3.10;2.90;;;;;;;5.03;57.37;98501.22;8382733;28;20236;-66
2023/01/22 03:55:57;;;;;;;2.93;2.73;;;;;;;4.75;57.91;98499.00;8382973;28;20240;-65
2023/01/22 04:00:06;;;;;;;3.17;2.90;;;;;;;4.94;57.79;98504.75;8382788;28;20231;-66
2023/01/22 04:04:08;;;;;;;3.20;3.00;;;;;;;5.01;57.14;98508.09;8382626;28;20528;-66
2023/01/22 04:08:11;;;;;;;3.03;2.83;;;;;;;4.99;57.63;98509.78;8382558;28;20229;-66
2023/01/22 04:12:14;;;;;;;3.00;2.80;;;;;;;4.62;59.07;98512.84;8382344;28;20235;-66
2023/01/22 04:16:18;;;;;;;3.10;2.90;;;;;;;4.85;57.94;98513.38;8382252;28;20539;-65
2023/01/22 04:20:20;;;;;;;3.30;3.00;;;;;;;5.00;57.55;98521.78;8381928;28;20498;-66
2023/01/22 04:24:23;;;;;;;3.40;3.10;;;;;;;4.87;57.95;98526.22;8381579;28;20524;-66
2023/01/22 04:28:26;;;;;;;2.73;2.53;;;;;;;5.02;57.41;98525.16;8381876;28;20225;-66
2023/01/22 04:32:31;;;;;;;3.40;3.10;;;;;;;5.01;57.47;98518.34;8381691;28;20563;-66
2023/01/22 04:36:33;;;;;;;2.97;2.67;;;;;;;5.08;57.20;98527.66;8381073;28;20236;-66
2023/01/22 04:40:36;;;;;;;3.10;2.80;;;;;;;5.07;57.29;98525.97;8381389;28;20225;-66
2023/01/22 04:44:39;;;;;;;3.30;3.10;;;;;;;5.02;57.60;98520.88;8381229;28;20524;-66
2023/01/22 04:48:44;;;;;;;3.03;2.73;;;;;;;5.00;57.63;98530.31;8380744;28;20224;-66
2023/01/22 04:52:49;;;;;;;3.27;3.07;;;;;;;5.04;57.45;98539.69;8381066;28;20225;-65
2023/01/22 04:56:52;;;;;;;3.30;3.00;;;;;;;5.08;57.42;98541.34;8380939;28;20414;-66
2023/01/22 05:00:55;;;;;;;2.80;2.60;;;;;;;5.08;57.49;98533.66;8380748;28;20239;-65
2023/01/22 05:04:59;;;;;;;2.80;2.60;;;;;;;4.94;57.33;98547.53;8380539;28;20292;-66
2023/01/22 05:09:02;;;;;;;3.30;3.00;;;;;;;5.04;57.76;98549.94;8380609;28;20524;-66
2023/01/22 05:13:06;;;;;;;2.83;2.63;;;;;;;5.05;57.38;98548.25;8380294;28;20256;-66
2023/01/22 05:17:09;;;;;;;3.20;2.90;;;;;;;5.04;57.61;98549.94;8380339;28;20288;-66
2023/01/22 05:21:13;;;;;;;2.90;2.70;;;;;;;5.03;57.58;98560.25;8380037;28;20229;-66
2023/01/22 05:25:16;;;;;;;3.23;3.03;;;;;;;5.08;57.24;98555.91;8379786;28;20228;-66
2023/01/22 05:29:24;;;;;;;3.90;3.60;;;;;;;5.07;57.62;98569.63;8379989;28;20255;-66
2023/01/22 05:33:28;;;;;;;4.00;3.60;;;;;;;5.06;57.66;98568.78;8379884;28;20221;-66
2023/01/22 05:37:32;;;;;;;3.60;3.30;;;;;;;5.17;57.47;98568.63;8379707;28;20233;-66
2023/01/22 05:41:35;;;;;;;3.37;3.10;;;;;;;5.08;57.21;98572.16;8379856;28;20228;-66
2023/01/22 05:45:38;;;;;;;3.20;2.90;;;;;;;5.02;57.38;98572.22;8379544;28;20233;-66
2023/01/22 05:49:41;;;;;;;2.90;2.70;;;;;;;5.11;57.39;98568.69;8379214;28;20224;-66
2023/01/22 05:53:45;;;;;;;3.30;3.10;;;;;;;4.98;57.25;98574.84;8379241;28;20416;-66
2023/01/22 05:57:48;;;;;;;2.90;2.70;;;;;;;5.07;57.48;98575.59;8379551;28;20229;-65
2023/01/22 06:01:50;;;;;;;2.97;2.77;;;;;;;5.09;57.22;98588.41;8379541;28;20423;-66
2023/01/22 06:05:59;;;;;;;3.37;3.10;;;;;;;5.02;57.22;98590.19;8379274;28;20428;-65
2023/01/22 06:10:04;;;;;;;2.83;2.60;;;;;;;4.99;57.62;98573.97;8379333;28;20233;-65
2023/01/22 06:14:07;;;;;;;3.83;3.53;;;;;;;5.08;56.90;98592.72;8379061;28;20228;-65
2023/01/22 06:18:10;;;;;;;2.90;2.70;;;;;;;5.03;57.21;98596.19;8379214;28;20224;-65
2023/01/22 06:22:13;;;;;;;3.30;3.00;;;;;;;4.93;57.14;98594.59;8379232;28;20412;-66
2023/01/22 06:26:17;;;;;;;3.20;3.00;;;;;;;5.04;57.05;98608.16;8379027;28;20413;-65
2023/01/22 06:30:20;;;;;;;4.20;3.70;;;;;;;5.04;57.14;98606.41;8378934;28;20218;-65
2023/01/22 06:34:23;;;;;;;4.20;3.90;;;;;;;4.86;57.70;98584.41;8378835;28;20274;-65
2023/01/22 06:38:26;;;;;;;3.40;3.07;;;;;;;4.92;57.37;98606.56;8378831;28;20221;-65
2023/01/22 06:42:30;;;;;;;3.10;2.90;;;;;;;5.06;57.32;98608.97;8378865;28;20225;-65
2023/01/22 06:46:33;;;;;;;3.20;2.93;;;;;;;5.08;57.05;98614.94;8378672;28;20234;-66
2023/01/22 06:50:36;;;;;;;3.40;3.20;;;;;;;5.03;57.15;98609.88;8378831;28;20221;-66
2023/01/22 06:54:38;;;;;;;3.30;3.10;;;;;;;5.04;57.29;98618.41;8378666;28;20232;-65
2023/01/22 06:58:43;;;;;;;3.20;3.00;;;;;;;5.00;57.23;98609.06;8378506;28;20413;-66
2023/01/22 07:02:45;;;;;;;2.97;2.77;;;;;;;5.13;56.72;98626.00;8384270;28;20228;-66
2023/01/22 07:06:48;;;;;;;3.30;3.10;;;;;;;5.07;57.20;98629.50;8383976;28;20239;-65
2023/01/22 07:10:51;;;;;;;2.87;2.67;;;;;;;4.19;56.70;98485.97;8384175;28;20235;-66
2023/01/22 07:14:56;;;;;;;3.03;2.83;;;;;;;5.16;56.87;98640.53;8383992;28;20307;-65
2023/01/22 07:19:00;;;;;;;2.93;2.70;;;;;;;5.21;57.15;98649.03;8383567;28;20233;-65
2023/01/22 07:23:03;;;;;;;2.73;2.53;;;;;;;5.06;57.17;98653.50;8383631;28;20228;-65
2023/01/22 07:27:05;;;;;;;2.57;2.47;;;;;;;5.13;57.33;98653.41;8383140;28;20328;-65
2023/01/22 07:31:11;;;;;;;2.73;2.53;;;;;;;5.20;57.02;98657.63;8382748;28;20225;-65
2023/01/22 07:35:14;;;;;;;2.90;2.70;;;;;;;5.14;56.73;98657.66;8382753;28;20242;-65
2023/01/22 07:39:17;;;;;;;2.53;2.37;;;;;;;5.18;57.29;98670.47;8383274;28;20225;-66
2023/01/22 07:43:19;;;;;;;3.20;3.00;;;;;;;5.21;57.07;98670.41;8383317;28;20236;-66
2023/01/22 07:47:23;;;;;;;3.57;3.00;;;;;;;5.22;56.77;98672.13;8383018;28;20236;-66
2023/01/22 07:51:26;;;;;;;2.70;2.50;;;;;;;5.22;56.90;98668.72;8383085;28;20248;-66
2023/01/22 07:55:30;;;;;;;2.87;2.67;;;;;;;5.16;56.95;98669.66;8382910;28;20229;-66
2023/01/22 07:59:32;;;;;;;2.83;2.63;;;;;;;5.09;57.12;98668.00;8382449;28;20225;-65
2023/01/22 08:03:37;;;;;;;4.50;3.07;;;;;;;5.33;56.97;98681.41;8382610;28;20424;-66
2023/01/22 08:07:40;;;;;;;3.40;3.17;;;;;;;5.31;57.12;98686.56;8382125;28;20536;-66
2023/01/22 08:11:42;;;;;;;3.27;2.97;;;;;;;5.31;56.96;98684.00;8381540;28;20244;-67
2023/01/22 08:15:45;;;;;;;3.00;2.80;;;;;;;5.27;57.25;98702.88;8382428;28;20524;-66
2023/01/22 08:19:49;;;;;;;3.40;3.20;;;;;;;5.32;56.98;98698.56;8381812;28;20232;-66
2023/01/22 08:23:52;;;;;;;3.53;3.33;;;;;;;5.36;56.94;98707.09;8381527;28;20237;-66
2023/01/22 08:27:55;;;;;;;3.77;3.47;;;;;;;5.37;57.18;98698.50;8381437;28;20244;-66
2023/01/22 08:31:58;;;;;;;3.73;3.50;;;;;;;5.42;57.00;98712.97;8381689;28;20247;-66
2023/01/22 08:36:02;;;;;;;3.80;3.47;;;;;;;5.45;56.91;98720.66;8381572;28;21757;-66
2023/01/22 08:40:07;;;;;;;3.30;3.00;;;;;;;5.45;57.13;98718.09;8381531;28;20220;-66
2023/01/22 08:44:12;;;;;;;3.40;3.10;;;;;;;5.51;56.70;98721.47;8381170;28;20247;-66
2023/01/22 08:48:15;;;;;;;3.57;3.27;;;;;;;5.52;56.84;98728.28;8380988;28;20379;-66
2023/01/22 08:52:19;;;;;;;2.90;2.70;;;;;;;5.55;56.53;98731.69;8381021;28;20224;-67
2023/01/22 08:56:22;;;;;;;3.00;2.80;;;;;;;5.45;57.06;98730.94;8381163;28;20229;-67
2023/01/22 09:00:25;;;;;;;3.00;2.80;;;;;;;5.49;56.72;98719.75;8381153;28;20252;-67
2023/01/22 09:04:28;;;;;;;4.27;3.93;;;;;;;5.47;56.65;98736.91;8380999;28;20452;-65
2023/01/22 09:08:32;;;;;;;3.50;3.30;;;;;;;5.51;56.57;98740.28;8380880;28;20227;-67
2023/01/22 09:12:35;;;;;;;4.40;4.00;;;;;;;5.36;57.16;98737.91;8380408;28;20228;-67
2023/01/22 09:16:38;;;;;;;4.67;4.27;;;;;;;5.51;56.28;98742.88;8380351;28;20567;-66
2023/01/22 09:20:41;;;;;;;4.77;4.27;;;;;;;5.54;56.35;98744.53;8379904;28;20221;-67
2023/01/22 09:24:45;;;;;;;6.13;4.53;;;;;;;5.63;56.18;98753.00;8371259;28;20537;-67
2023/01/22 09:28:47;;;;;;;4.80;4.40;;;;;;;5.73;56.05;98752.88;8379968;28;20260;-67
2023/01/22 09:32:50;;;;;;;3.83;3.53;;;;;;;5.90;55.49;98757.81;8380028;28;20232;-67
2023/01/22 09:36:53;;;;;;;3.20;3.00;;;;;;;5.85;55.26;98760.47;8379976;28;20401;-67
2023/01/22 09:41:00;;;;;;;3.00;2.80;;;;;;;5.94;55.33;98762.91;8379938;28;20237;-67
2023/01/22 09:45:08;;;;;;;3.20;3.00;;;;;;;5.77;55.54;98765.69;8379865;28;20434;-67
2023/01/22 09:49:15;;;;;;;3.63;3.33;;;;;;;5.87;54.93;98764.69;8379388;28;20229;-67
2023/01/22 09:53:19;;;;;;;3.20;3.00;;;;;;;5.90;55.14;98776.66;8379443;28;20255;-67
2023/01/22 09:57:23;;;;;;;3.37;3.17;;;;;;;5.84;55.35;98781.88;8379706;28;20233;-67
2023/01/22 10:01:34;;;;;;;3.60;3.40;;;;;;;5.84;55.46;98781.88;8379527;28;20285;-67
2023/01/22 10:05:39;;;;;;;3.63;3.33;;;;;;;5.94;55.36;98785.19;8379359;28;20299;-68
2023/01/22 10:09:46;;;;;;;4.00;3.70;;;;;;;5.94;55.29;98780.03;8379335;28;20240;-69
2023/01/22 10:13:53;;;;;;;3.87;3.57;;;;;;;5.79;54.90;98778.53;8379369;28;20225;-68
2023/01/22 10:17:57;;;;;;;3.40;3.20;;;;;;;5.92;55.45;98777.50;8379252;28;20410;-67
2023/01/22 10:22:02;;;;;;;4.80;4.40;;;;;;;5.82;55.07;98771.59;8379459;28;20221;-67
2023/01/22 10:26:13;;;;;;;5.00;4.60;;;;;;;6.05;54.91;98778.22;8378948;28;20235;-68
2023/01/22 10:30:22;;;;;;;5.00;4.60;;;;;;;5.96;54.48;98779.19;8379393;28;20294;-67
2023/01/22 10:34:29;;;;;;;4.73;4.20;;;;;;;5.88;55.05;98770.69;8382436;28;20236;-68
2023/01/22 10:38:32;;;;;;;3.60;3.30;;;;;;;5.83;55.37;98775.91;8385446;28;20228;-67
2023/01/22 10:42:35;;;;;;;4.70;4.30;;;;;;;6.02;54.77;98789.41;8385393;28;20229;-68
2023/01/22 10:46:39;;;;;;;4.73;4.33;;;;;;;5.92;54.60;98785.22;8385482;28;20232;-67
2023/01/22 10:50:44;;;;;;;3.73;3.43;;;;;;;5.97;54.95;98795.47;8384742;28;20229;-67
2023/01/22 10:54:52;;;;;;;3.93;3.63;;;;;;;5.87;55.25;98797.28;8384953;28;20224;-67
2023/01/22 10:58:55;;;;;;;4.77;4.37;;;;;;;5.79;55.26;98801.66;8385103;28;20425;-67
2023/01/22 11:03:01;;;;;;;4.33;4.03;;;;;;;5.84;55.35;98798.16;8384709;28;20436;-67
2023/01/22 11:07:07;;;;;;;4.50;4.20;;;;;;;5.96;55.15;98802.34;8384830;28;20460;-67
2023/01/22 11:11:11;;;;;;;4.83;4.40;;;;;;;5.59;54.98;98769.31;8384616;28;20228;-67
2023/01/22 11:15:21;;;;;;;5.53;5.03;;;;;;;5.71;55.66;98806.03;8384401;28;20566;-67
2023/01/22 11:19:29;;;;;;;4.90;4.50;;;;;;;6.05;55.05;98811.66;8384152;28;20232;-66
2023/01/22 11:23:46;;;;;;;4.53;4.23;;;;;;;5.79;55.24;98806.81;8384005;28;20244;-66
2023/01/22 11:27:58;;;;;;;4.53;4.20;;;;;;;5.92;54.76;98805.78;8383393;28;20229;-66
2023/01/22 11:32:25;;;;;;;4.10;3.80;;;;;;;5.91;55.27;98798.94;8383559;28;20228;-66
2023/01/22 11:36:34;;;;;;;4.97;4.57;;;;;;;5.92;55.02;98794.63;8383557;28;20263;-66
2023/01/22 11:40:42;;;;;;;6.70;2.87;;;;;;;9.25;81.74;98802.16;8383399;28;20236;-67
2023/01/22 11:44:55;;;;;;;6.00;3.10;;;;;;;9.80;62.10;98792.94;8381819;28;20317;-67
2023/01/22 11:49:06;;;;;;;2.93;2.73;;;;;;;10.08;50.88;98767.13;8382771;28;20229;-66
2023/01/22 11:53:24;;;;;;;4.17;3.50;;;;;;;8.03;51.04;98787.75;8382692;28;20225;-67
2023/01/22 11:57:31;;;;;;;3.57;3.27;;;;;;;7.49;51.92;98782.78;8383052;28;20225;-66
2023/01/22 12:01:56;;;;;;;3.87;3.60;;;;;;;7.02;52.74;98776.75;8382611;28;20423;-66
2023/01/22 12:06:11;;;;;;;4.50;4.18;;;;;;;7.64;50.92;98781.66;8380242;28;20626;-66
2023/01/22 12:10:38;;;;;;;4.07;3.77;;;;;;;7.09;52.88;98780.94;8382357;28;20235;-67
2023/01/22 12:14:58;;;;;;;4.27;3.97;;;;;;;6.81;53.15;98763.38;8382033;28;20228;-67
2023/01/22 12:19:41;;;;;;;4.30;4.00;;;;;;;6.48;53.56;98772.47;8381890;28;20228;-67
2023/01/22 12:23:47;;;;;;;4.47;4.13;;;;;;;6.36;54.18;98772.66;8324595;28;20307;-67
2023/01/22 12:27:55;;;;;;;8.13;7.33;;;;;;;6.69;53.42;98789.31;8381198;28;20425;-66
2023/01/22 12:32:03;;;;;;;4.80;4.30;;;;;;;6.34;54.12;98776.97;8381678;28;20239;-66
2023/01/22 12:36:11;;;;;;;3.90;3.60;;;;;;;6.07;54.50;98736.19;8381760;28;20237;-67
2023/01/22 12:40:34;;;;;;;4.10;3.80;;;;;;;6.13;54.16;98754.97;8381469;28;20228;-67
2023/01/22 12:44:46;;;;;;;3.60;3.30;;;;;;;6.12;54.32;98769.56;8381474;28;20228;-66
2023/01/22 12:48:57;;;;;;;3.93;3.53;;;;;;;6.21;54.10;98761.72;8373642;28;20240;-66
2023/01/22 12:53:01;;;;;;;3.70;3.40;;;;;;;6.26;54.15;98762.50;8380935;28;20233;-66
2023/01/22 12:57:20;;;;;;;4.13;3.73;;;;;;;6.14;54.48;98761.81;8380949;28;20228;-66
2023/01/22 13:01:31;;;;;;;3.50;3.30;;;;;;;6.02;54.12;98768.00;8381184;28;20229;-66
2023/01/22 13:05:44;;;;;;;4.88;4.47;;;;;;;6.63;53.30;98767.09;8380140;28;20401;-66
2023/01/22 13:09:47;;;;;;;4.70;4.30;;;;;;;6.19;54.09;98721.47;8380055;28;20431;-66
2023/01/22 13:13:55;;;;;;;4.07;3.77;;;;;;;6.51;53.58;98769.00;8380212;28;20235;-66
2023/01/22 13:18:21;;;;;;;4.80;4.40;;;;;;;6.55;53.61;98761.22;8380418;28;20225;-66
2023/01/22 13:22:27;;;;;;;5.93;5.43;;;;;;;6.49;53.70;98758.72;8380343;28;20539;-65
2023/01/22 13:26:31;;;;;;;5.80;5.20;;;;;;;6.49;54.15;98766.44;8380011;28;20229;-66
2023/01/22 13:30:34;;;;;;;4.90;4.50;;;;;;;6.65;53.67;98775.66;8380235;28;20225;-66
2023/01/22 13:34:39;;;;;;;4.40;4.00;;;;;;;6.60;53.32;98779.16;8379897;28;20228;-66
2023/01/22 13:38:42;;;;;;;5.20;4.70;;;;;;;6.41;53.03;98727.13;8379272;28;20284;-65
2023/01/22 13:42:46;;;;;;;14.20;9.00;;;;;;;6.46;53.43;98774.22;8379501;28;20237;-65
2023/01/22 13:46:49;;;;;;;8.37;6.50;;;;;;;6.43;53.82;98782.81;8379614;28;20225;-64
2023/01/22 13:50:56;;;;;;;4.50;4.10;;;;;;;6.22;53.52;98760.81;8379740;28;20446;-65
2023/01/22 13:55:01;;;;;;;5.00;4.60;;;;;;;6.30;54.24;98780.47;8379785;28;20259;-65
2023/01/22 13:59:06;;;;;;;4.27;3.87;;;;;;;6.51;53.63;98774.16;8379446;28;20220;-65
2023/01/22 14:03:21;;;;;;;4.33;3.93;;;;;;;6.27;53.74;98771.06;8379345;28;20225;-65
2023/01/22 14:07:28;;;;;;;4.73;4.13;;;;;;;6.35;52.85;98781.25;8379565;28;20236;-65
2023/01/22 14:11:38;;;;;;;4.40;4.00;;;;;;;6.49;53.86;98791.34;8385976;28;20225;-64
2023/01/22 14:15:41;;;;;;;4.73;4.33;;;;;;;6.36;53.59;98775.22;8385468;28;20290;-65
2023/01/22 14:19:44;;;;;;;6.83;6.23;;;;;;;6.22;53.64;98793.44;8385740;28;20228;-64
2023/01/22 14:23:48;;;;;;;7.97;7.27;;;;;;;6.57;53.00;98794.66;8385544;28;20248;-65
2023/01/22 14:27:51;;;;;;;6.40;5.80;;;;;;;6.60;53.59;98810.88;8385759;28;20240;-65
2023/01/22 14:31:54;;;;;;;6.10;5.50;;;;;;;6.41;53.54;98805.16;8385778;28;20225;-65
2023/01/22 14:35:58;;;;;;;5.27;4.77;;;;;;;6.34;54.21;98811.28;8385058;28;20233;-64
2023/01/22 14:40:03;;;;;;;14.93;12.27;;;;;;;6.36;53.74;98800.94;8385525;28;20442;-65
2023/01/22 14:44:06;;;;;;;7.90;7.10;;;;;;;6.46;54.10;98821.38;8385304;28;20559;-65
2023/01/22 14:48:11;;;;;;;8.40;7.60;;;;;;;6.35;54.57;98820.69;8385186;28;20508;-66
2023/01/22 14:52:14;;;;;;;5.43;4.93;;;;;;;6.42;54.00;98821.47;8385082;28;20423;-66
2023/01/22 14:56:18;;;;;;;5.00;4.60;;;;;;;6.28;54.63;98813.06;8384916;28;20225;-66
2023/01/22 15:00:21;;;;;;;5.70;5.20;;;;;;;6.43;54.32;98826.56;8385099;28;20221;-66
2023/01/22 15:04:24;;;;;;;5.97;5.43;;;;;;;6.41;54.65;98825.75;8384838;28;20221;-66
2023/01/22 15:08:27;;;;;;;6.23;5.63;;;;;;;6.31;54.63;98825.91;8384611;28;20229;-67
2023/01/22 15:12:31;;;;;;;17.37;13.83;;;;;;;6.21;54.93;98804.59;8384506;28;20300;-67
2023/01/22 15:16:34;;;;;;;9.33;8.03;;;;;;;6.34;54.86;98826.72;8384402;28;20224;-66
2023/01/22 15:20:38;;;;;;;8.10;7.30;;;;;;;6.24;55.04;98826.00;8382733;28;20298;-66
2023/01/22 15:24:42;;;;;;;10.97;9.87;;;;;;;6.10;55.46;98819.31;8383738;28;20268;-66
2023/01/22 15:28:46;;;;;;;16.60;12.43;;;;;;;6.38;55.45;98843.81;8383262;28;20232;-66
2023/01/22 15:32:49;;;;;;;18.47;14.57;;;;;;;6.28;55.42;98834.50;8383750;28;20229;-67
2023/01/22 15:36:52;;;;;;;6.60;5.90;;;;;;;6.28;55.84;98847.34;8383499;28;20246;-66
2023/01/22 15:41:02;;;;;;;32.07;23.30;;;;;;;6.22;55.57;98855.16;8383128;28;20247;-67
2023/01/22 15:45:08;;;;;;;10.88;9.77;;;;;;;6.92;53.32;98855.91;8381222;28;20416;-66
2023/01/22 15:49:12;;;;;;;8.83;8.03;;;;;;;6.29;54.92;98854.22;8381756;28;20260;-66
2023/01/22 15:53:14;;;;;;;9.93;7.87;;;;;;;6.25;55.23;98865.41;8381222;28;20225;-66
2023/01/22 15:57:17;;;;;;;9.50;8.30;;;;;;;6.26;55.63;98864.53;8381268;28;20228;-66
2023/01/22 16:01:22;;;;;;;5.87;5.23;;;;;;;6.30;54.85;98868.75;8380012;28;20420;-67
2023/01/22 16:05:25;;;;;;;5.83;5.33;;;;;;;6.23;55.40;98873.16;8380977;28;20233;-66
2023/01/22 16:09:28;;;;;;;6.10;5.60;;;;;;;6.18;55.39;98867.19;8380558;28;20229;-66
2023/01/22 16:13:31;;;;;;;5.70;5.20;;;;;;;6.20;55.21;98868.03;8380351;28;20232;-66
2023/01/22 16:17:35;;;;;;;13.57;11.90;;;;;;;6.25;55.24;98873.13;8380338;28;20229;-67
2023/01/22 16:21:38;;;;;;;18.23;16.33;;;;;;;6.12;55.53;98877.56;8380418;28;20228;-66
2023/01/22 16:25:41;;;;;;;8.67;7.30;;;;;;;6.23;55.33;98878.28;8380139;28;20515;-66
2023/01/22 16:29:44;;;;;;;7.00;6.37;;;;;;;6.16;55.55;98883.53;8379887;28;20544;-66
2023/01/22 16:33:50;;;;;;;7.10;6.40;;;;;;;6.11;55.74;98890.44;8379557;28;20528;-66
2023/01/22 16:37:53;;;;;;;7.00;6.33;;;;;;;6.14;55.85;98891.25;8379642;28;20237;-66
2023/01/22 16:41:56;;;;;;;10.10;9.10;;;;;;;6.02;56.25;98888.84;8379508;28;20229;-66
2023/01/22 16:45:58;;;;;;;8.53;7.63;;;;;;;6.12;55.94;98893.00;8379394;28;20269;-66
2023/01/22 16:50:03;;;;;;;12.87;11.77;;;;;;;6.08;55.99;98893.91;8379304;28;20266;-67
2023/01/22 16:54:07;;;;;;;9.50;8.60;;;;;;;6.05;56.06;98893.94;8378745;28;20233;-66
2023/01/22 16:58:11;;;;;;;9.30;8.20;;;;;;;6.00;56.33;98894.00;8377322;28;20229;-66
2023/01/22 17:02:17;;;;;;;10.73;9.57;;;;;;;6.06;56.43;98913.66;8378057;28;20224;-67
2023/01/22 17:06:26;;;;;;;10.80;9.67;;;;;;;6.10;56.29;98909.34;8378730;28;20226;-66
2023/01/22 17:10:29;;;;;;;13.57;11.37;;;;;;;6.02;56.38;98907.69;8379164;28;20237;-67
2023/01/22 17:14:35;;;;;;;14.03;12.63;;;;;;;6.10;56.41;98909.34;8377075;28;20232;-67
2023/01/22 17:18:38;;;;;;;8.67;7.43;;;;;;;5.94;56.59;98913.72;8378480;28;20547;-68
2023/01/22 17:22:42;;;;;;;7.73;6.93;;;;;;;5.94;56.65;98908.59;8377454;28;20224;-68
2023/01/22 17:26:45;;;;;;;6.70;6.10;;;;;;;5.93;56.68;98920.59;8377794;28;20243;-67
2023/01/22 17:30:50;;;;;;;7.30;6.70;;;;;;;5.95;56.80;98926.63;8377868;28;20575;-67
2023/01/22 17:34:53;;;;;;;6.13;5.53;;;;;;;5.93;57.35;98924.91;8377722;28;20298;-68
2023/01/22 17:38:58;;;;;;;8.23;7.43;;;;;;;5.70;57.42;98925.97;8376948;28;20244;-68
2023/01/22 17:43:02;;;;;;;11.20;9.67;;;;;;;5.80;57.73;98947.31;8376208;28;20290;-68
2023/01/22 17:47:06;;;;;;;11.03;9.93;;;;;;;5.63;58.52;98952.59;8376849;28;20233;-67
2023/01/22 17:51:11;;;;;;;10.00;9.00;;;;;;;5.76;58.28;98946.47;8377058;28;20232;-68
2023/01/22 17:55:16;;;;;;;9.40;8.50;;;;;;;5.81;58.38;98956.72;8375716;28;20236;-68
2023/01/22 17:59:20;;;;;;;8.70;7.90;;;;;;;5.78;58.63;98960.16;8376686;28;20234;-67
2023/01/22 18:03:24;;;;;;;8.50;7.70;;;;;;;5.73;58.55;98954.22;8376005;28;20428;-67
2023/01/22 18:07:27;;;;;;;9.43;8.53;;;;;;;5.69;58.59;98967.94;8376006;28;20239;-68
2023/01/22 18:11:33;;;;;;;9.93;8.73;;;;;;;5.70;58.96;98977.38;8376648;28;20232;-67
2023/01/22 18:15:36;;;;;;;10.80;9.73;;;;;;;5.78;58.66;98985.03;8376239;28;20296;-67
2023/01/22 18:19:40;;;;;;;10.27;9.27;;;;;;;5.76;58.43;98974.75;8376063;28;20262;-67
2023/01/22 18:23:43;;;;;;;9.93;8.97;;;;;;;5.59;59.06;98967.19;8366498;28;20228;-66
2023/01/22 18:27:47;;;;;;;9.70;8.80;;;;;;;5.65;58.76;98984.25;8376072;28;20302;-67
2023/01/22 18:31:50;;;;;;;10.17;9.23;;;;;;;5.66;58.66;98984.25;8375678;28;20240;-67
2023/01/22 18:35:53;;;;;;;14.97;12.60;;;;;;;5.53;59.81;99003.22;8375855;28;20291;-67
2023/01/22 18:39:56;;;;;;;11.67;9.80;;;;;;;5.68;59.02;99000.50;8375619;28;20236;-67
2023/01/22 18:44:02;;;;;;;12.50;10.23;;;;;;;5.45;59.72;98995.56;8375660;28;20237;-66
2023/01/22 18:48:05;;;;;;;11.23;8.87;;;;;;;5.57;59.20;99002.31;8375045;28;20231;-66
2023/01/22 18:52:08;;;;;;;8.63;7.73;;;;;;;5.57;59.20;99009.19;8376070;28;20237;-67
2023/01/22 18:56:12;;;;;;;216.63;102.70;;;;;;;6.22;79.08;98991.50;8380110;28;20229;-67
2023/01/22 19:00:17;;;;;;;71.93;38.47;;;;;;;9.14;68.78;99019.53;8382083;28;20418;-67
2023/01/22 19:04:20;;;;;;;8.43;7.73;;;;;;;8.99;53.47;99020.72;8381902;28;20449;-67
2023/01/22 19:08:23;;;;;;;7.77;7.07;;;;;;;7.01;55.79;99019.75;8381569;28;20229;-68
2023/01/22 19:12:26;;;;;;;7.77;7.07;;;;;;;6.77;56.73;99008.88;8381287;28;20536;-68
2023/01/22 19:16:30;;;;;;;7.50;6.90;;;;;;;6.31;57.32;99006.00;8381044;28;20236;-68
2023/01/22 19:20:36;;;;;;;6.10;5.60;;;;;;;6.31;57.97;99014.56;8380958;28;20229;-67
2023/01/22 19:24:39;;;;;;;7.47;6.80;;;;;;;6.10;57.97;99012.19;8381110;28;20225;-69
2023/01/22 19:28:42;;;;;;;6.97;6.37;;;;;;;5.71;59.04;99001.34;8380192;28;20256;-66
2023/01/22 19:32:46;;;;;;;8.15;7.50;;;;;;;6.48;56.63;99013.53;8378841;28;20602;-66
2023/01/22 19:36:50;;;;;;;7.17;6.57;;;;;;;5.83;58.80;99019.25;8380744;28;20244;-67